»·PEaware :: ASA515 KMFR-KPDX

ASA515 :: KMFR-KPDX

FLIGHT INFORMATION

Flight Status: Arrived
Operator:
Alaska Airlines
More flights by this operator :: More flights under this callsign
Pilot: Doug L. (8712)
Aircraft: BOEING 737-900
(B739)
More flights by this aircraft type
Origin: KMFR Rogue Valley Intl-Medford
United States
Destination: KPDX Portland Intl
United States
More flights between these airports :: More routes between these airports
Route: JKSN1 OED MOXEE TMBRS2
File this flight plan on PilotEdge
Remarks:
Altitude:
(Current/Filed)
24,000ft
Speed:
(Current/Filed)
425kts
Departed: 11-Oct-18 07:59 PM
Arrived: 11-Oct-18 08:37 PM
Distance/Time
Traveled:
193nm/0:37
Distance/Time
To Go:
Arrived

Flight Plot

Page will automatically refresh every two minutes.

Flight plan parsing failed; only flown route is shown


Map Options




Map Legend


Flown Route
Filed Route
Departure Airport
Arrival Airport
Navaid (VOR, NDB)
Fix

Horizontal Profiles

Position Reports

Time Latitude Longitude Heading Altitude Ground
Speed
11-Oct-18 19:47 42.368747 -122.873336 248 1320ft 0kts
11-Oct-18 19:48 42.368747 -122.873336 248 1320ft 0kts
11-Oct-18 19:49 42.368747 -122.873336 248 1320ft 0kts
11-Oct-18 19:50 42.368747 -122.873336 248 1320ft 0kts
11-Oct-18 19:51 42.368747 -122.873336 248 1320ft 0kts
11-Oct-18 19:52 42.368747 -122.873336 248 1320ft 0kts
11-Oct-18 19:53 42.368747 -122.873336 248 1320ft 0kts
11-Oct-18 19:54 42.368852 -122.872981 248 1321ft 2kts
11-Oct-18 19:55 42.369054 -122.872297 248 1322ft 2kts
11-Oct-18 19:56 42.369536 -122.871999 161 1321ft 0kts
11-Oct-18 19:57 42.369598 -122.872033 158 1321ft 0kts
11-Oct-18 19:58 42.368725 -122.871563 158 1322ft 14kts
11-Oct-18 19:59 42.364258 -122.869241 158 1328ft 16kts
11-Oct-18 20:00 42.363806 -122.867616 66 1331ft 8kts
11-Oct-18 20:01 42.380997 -122.876533 336 1480ft 176kts
11-Oct-18 20:02 42.433638 -122.900784 346 4343ft 227kts
11-Oct-18 20:03 42.499936 -122.916160 4 7353ft 267kts
11-Oct-18 20:04 42.562505 -122.908375 6 10209ft 281kts
11-Oct-18 20:05 42.643534 -122.899622 6 12706ft 322kts
11-Oct-18 20:06 42.731069 -122.890930 7 15824ft 334kts
11-Oct-18 20:07 42.823962 -122.881906 7 18733ft 345kts
11-Oct-18 20:08 42.919808 -122.872660 6 21484ft 352kts
11-Oct-18 20:09 43.017958 -122.863177 4 23923ft 359kts
11-Oct-18 20:10 43.121842 -122.853201 4 24065ft 397kts
11-Oct-18 20:11 43.234716 -122.842388 4 24065ft 425kts
11-Oct-18 20:12 43.353851 -122.830958 4 24055ft 430kts
11-Oct-18 20:13 43.472366 -122.819554 4 24054ft 430kts
11-Oct-18 20:14 43.591885 -122.808016 4 24063ft 429kts
11-Oct-18 20:15 43.729577 -122.794677 4 24099ft 426kts
11-Oct-18 20:16 43.827310 -122.785172 4 24097ft 425kts
11-Oct-18 20:17 43.945557 -122.773635 4 24096ft 425kts
11-Oct-18 20:18 44.063130 -122.762120 4 24095ft 425kts
11-Oct-18 20:19 44.173462 -122.751305 4 24082ft 372kts
11-Oct-18 20:20 44.273852 -122.741442 4 24101ft 366kts
11-Oct-18 20:21 44.374991 -122.731467 4 23215ft 361kts
11-Oct-18 20:22 44.470942 -122.721971 4 21264ft 354kts
11-Oct-18 20:23 44.562301 -122.712897 4 19415ft 340kts
11-Oct-18 20:24 44.652097 -122.703912 4 17615ft 327kts
11-Oct-18 20:25 44.741673 -122.694897 4 15709ft 320kts
11-Oct-18 20:26 44.826912 -122.686297 4 14028ft 312kts
11-Oct-18 20:27 44.911945 -122.677721 3 12401ft 304kts
11-Oct-18 20:28 45.007265 -122.668072 4 10931ft 287kts
11-Oct-18 20:29 45.072093 -122.661486 4 9991ft 276kts
11-Oct-18 20:30 45.146803 -122.653882 4 8882ft 267kts
11-Oct-18 20:31 45.219036 -122.646529 4 7818ft 261kts
11-Oct-18 20:32 45.284933 -122.614209 32 6809ft 254kts
11-Oct-18 20:33 45.344852 -122.559479 33 5605ft 254kts
11-Oct-18 20:34 45.400047 -122.509786 30 4997ft 224kts
11-Oct-18 20:35 45.455676 -122.463278 31 3750ft 251kts
11-Oct-18 20:36 45.517467 -122.438777 317 2501ft 241kts
11-Oct-18 20:37 45.550231 -122.506597 297 1815ft 169kts
11-Oct-18 20:38 45.571007 -122.559354 299 398ft 140kts
11-Oct-18 20:39 45.586732 -122.599762 299 37ft 33kts
11-Oct-18 20:40 45.588837 -122.602311 355 37ft 3kts
11-Oct-18 20:41 45.587795 -122.597207 119 37ft 19kts
11-Oct-18 20:42 45.587795 -122.594870 11 37ft 0kts

Navigation Log

Ident Type
Flight plan parsing failed, navigation log unavailable